Arequipa, Peru
Current Conditions -  °F | °C
As of 2:00 PM on Thursday 27 Nov 2014 (Local Time) from SPQU Reporting Station
Clear Clear  
Wind Chill: 68°   Ceiling: Unl
Heat Index: 68°   Visibility: 6mi
Dew Point: 30°   Wind: 15mph
Humidity: 24%   Direction: 270°W
Pressure: 30.24"   Gusts: NA
Location:  16.39°S, 71.53°W
Report Text: SPQU 271900Z 27013KT 230V300 CAVOK 20/M01 Q1024 NOSIGRMK PP000
Loading
Personal Weather Stations






























Interactive Weather Map New forecast layout! Learn more

10-Day Weather Forecast

Advertisements
Track Severe Weather on mobile